createdAt,value
2018-09-09T00:01:28.195Z,12.50
2018-09-09T00:03:56.766Z,12.60
2018-09-09T00:06:25.378Z,12.60
2018-09-09T00:08:53.966Z,12.60
2018-09-09T00:11:22.563Z,12.60
2018-09-09T00:13:51.117Z,12.60
2018-09-09T00:16:19.920Z,12.60
2018-09-09T00:18:48.524Z,12.60
2018-09-09T00:21:17.134Z,12.60
2018-09-09T00:23:45.737Z,12.60
2018-09-09T00:26:14.329Z,12.50
2018-09-09T00:28:42.949Z,12.40
2018-09-09T00:31:11.532Z,12.40
2018-09-09T00:33:40.093Z,12.30
2018-09-09T00:36:08.710Z,12.40
2018-09-09T00:38:37.269Z,12.40
2018-09-09T00:41:06.008Z,12.40
2018-09-09T00:43:34.573Z,12.40
2018-09-09T00:46:03.169Z,12.40
2018-09-09T00:48:31.732Z,12.30
2018-09-09T00:51:05.435Z,12.40
2018-09-09T00:53:39.398Z,12.40
2018-09-09T00:56:08.009Z,12.40
2018-09-09T00:58:36.577Z,12.40
2018-09-09T01:01:10.594Z,12.40
2018-09-09T01:03:39.385Z,12.30
2018-09-09T01:06:08.155Z,12.20
2018-09-09T01:08:36.752Z,12.20
2018-09-09T01:11:05.410Z,12.20
2018-09-09T01:13:33.993Z,12.30
2018-09-09T01:16:02.573Z,12.20
2018-09-09T01:18:31.385Z,12.30
2018-09-09T01:20:59.962Z,12.30
2018-09-09T01:23:28.569Z,12.30
2018-09-09T01:25:57.268Z,12.20
2018-09-09T01:28:25.850Z,12.20
2018-09-09T01:30:54.462Z,12.20
2018-09-09T01:33:23.077Z,12.20
2018-09-09T01:35:51.642Z,12.20
2018-09-09T01:38:21.245Z,12.20
2018-09-09T01:40:49.864Z,12.20
2018-09-09T01:43:18.454Z,12.10
2018-09-09T01:45:47.022Z,12.10
2018-09-09T01:48:15.605Z,12.10
2018-09-09T01:50:44.178Z,12.10
2018-09-09T01:53:12.768Z,12.10
2018-09-09T01:55:41.348Z,12.10
2018-09-09T01:58:09.938Z,12.00
2018-09-09T02:00:38.515Z,12.10
2018-09-09T02:03:07.136Z,12.10
2018-09-09T02:05:35.692Z,12.10
2018-09-09T02:08:04.285Z,12.10
2018-09-09T02:10:32.862Z,12.00
2018-09-09T02:13:01.441Z,12.00
2018-09-09T02:15:30.015Z,11.90
2018-09-09T02:17:58.604Z,12.00
2018-09-09T02:20:27.177Z,12.00
2018-09-09T02:22:55.781Z,12.00
2018-09-09T02:25:24.357Z,12.00
2018-09-09T02:27:52.936Z,11.90
2018-09-09T02:30:21.527Z,11.90
2018-09-09T02:32:50.139Z,12.00
2018-09-09T02:35:18.735Z,12.00
2018-09-09T02:37:47.329Z,11.90
2018-09-09T02:40:15.920Z,11.90
2018-09-09T02:42:44.533Z,11.90
2018-09-09T02:45:13.120Z,11.80
2018-09-09T02:47:41.695Z,11.80
2018-09-09T02:50:10.290Z,11.80
2018-09-09T02:52:38.853Z,11.80
2018-09-09T02:55:07.474Z,11.80
2018-09-09T02:57:36.058Z,11.80
2018-09-09T03:00:05.037Z,11.70
2018-09-09T03:02:33.604Z,11.70
2018-09-09T03:05:02.227Z,11.80
2018-09-09T03:07:30.786Z,11.80
2018-09-09T03:09:59.390Z,11.60
2018-09-09T03:12:28.516Z,11.60
2018-09-09T03:14:57.110Z,11.70
2018-09-09T03:17:25.682Z,11.70
2018-09-09T03:19:54.319Z,11.70
2018-09-09T03:22:22.949Z,11.60
2018-09-09T03:24:51.540Z,11.70
2018-09-09T03:27:20.121Z,11.60
2018-09-09T03:29:48.724Z,11.60
2018-09-09T03:32:17.337Z,11.60
2018-09-09T03:34:45.940Z,11.60
2018-09-09T03:37:14.533Z,11.50
2018-09-09T03:39:43.365Z,11.50
2018-09-09T03:42:11.932Z,11.40
2018-09-09T03:44:40.522Z,11.40
2018-09-09T03:47:09.084Z,11.50
2018-09-09T03:49:37.684Z,11.50
2018-09-09T03:52:06.293Z,11.50
2018-09-09T03:54:34.859Z,11.50
2018-09-09T03:57:03.482Z,11.50
2018-09-09T03:59:32.046Z,11.50
2018-09-09T04:02:00.651Z,11.40
2018-09-09T04:04:29.233Z,11.50
2018-09-09T04:06:57.844Z,11.40
2018-09-09T04:09:26.411Z,11.40
2018-09-09T04:11:55.003Z,11.40
2018-09-09T04:14:23.579Z,11.30
2018-09-09T04:16:52.215Z,11.30
2018-09-09T04:19:20.797Z,11.40
2018-09-09T04:21:51.537Z,11.40
2018-09-09T04:24:21.213Z,11.40
2018-09-09T04:26:49.868Z,11.40
2018-09-09T04:29:18.446Z,11.50
2018-09-09T04:31:47.040Z,11.50
2018-09-09T04:34:16.109Z,11.50
2018-09-09T04:36:44.751Z,11.40
2018-09-09T04:39:14.344Z,11.50
2018-09-09T04:41:42.993Z,11.50
2018-09-09T04:44:13.018Z,11.50
2018-09-09T04:46:41.655Z,11.50
2018-09-09T04:49:10.709Z,11.50
2018-09-09T04:51:39.743Z,11.50
2018-09-09T04:54:08.373Z,11.50
2018-09-09T04:56:36.970Z,11.50
2018-09-09T04:59:05.590Z,11.50
2018-09-09T05:01:34.181Z,11.50
2018-09-09T05:04:02.761Z,11.60
2018-09-09T05:06:31.347Z,11.50
2018-09-09T05:08:59.960Z,11.40
2018-09-09T05:11:28.557Z,11.40
2018-09-09T05:13:57.152Z,11.50
2018-09-09T05:16:25.725Z,11.60
2018-09-09T05:18:54.361Z,11.50
2018-09-09T05:21:22.911Z,11.60
2018-09-09T05:23:51.612Z,11.60
2018-09-09T05:26:20.327Z,11.60
2018-09-09T05:28:48.920Z,11.60
2018-09-09T05:31:17.657Z,11.60
2018-09-09T05:33:46.527Z,11.60
2018-09-09T05:36:15.112Z,11.60
2018-09-09T05:38:44.020Z,11.60
2018-09-09T05:41:12.598Z,11.70
2018-09-09T05:43:41.200Z,11.80
2018-09-09T05:46:09.823Z,11.80
2018-09-09T05:48:38.449Z,11.80
2018-09-09T05:51:07.413Z,11.90
2018-09-09T05:53:36.009Z,11.90
2018-09-09T05:56:04.659Z,12.00
2018-09-09T05:58:33.373Z,12.00
2018-09-09T06:01:01.999Z,12.00
2018-09-09T06:03:30.596Z,12.20
2018-09-09T06:05:59.170Z,12.20
2018-09-09T06:08:27.767Z,12.30
2018-09-09T06:10:56.352Z,12.40
2018-09-09T06:13:26.260Z,12.50
2018-09-09T06:15:54.845Z,12.70
2018-09-09T06:18:23.460Z,13.00
2018-09-09T06:20:52.728Z,13.40
2018-09-09T06:23:21.322Z,14.10
2018-09-09T06:25:49.913Z,14.50
2018-09-09T06:28:18.594Z,14.80
2018-09-09T06:30:47.176Z,15.50
2018-09-09T06:33:15.745Z,16.10
2018-09-09T06:35:44.388Z,16.60
2018-09-09T06:38:12.987Z,17.20
2018-09-09T06:40:41.592Z,17.60
2018-09-09T06:43:10.828Z,17.90
2018-09-09T06:45:39.420Z,18.30
2018-09-09T06:48:08.009Z,18.60
2018-09-09T06:50:36.613Z,19.10
2018-09-09T06:53:05.204Z,19.80
2018-09-09T06:55:33.834Z,20.40
2018-09-09T06:58:02.506Z,21.00
2018-09-09T07:00:31.365Z,21.50
2018-09-09T07:03:00.559Z,21.80
2018-09-09T07:05:29.173Z,22.00
2018-09-09T07:07:57.730Z,22.50
2018-09-09T07:10:26.350Z,23.00
2018-09-09T07:12:54.925Z,23.40
2018-09-09T07:15:23.534Z,23.90
2018-09-09T07:17:52.135Z,24.30
2018-09-09T07:20:20.877Z,24.90
2018-09-09T07:22:49.468Z,25.10
2018-09-09T07:25:18.093Z,25.90
2018-09-09T07:27:46.666Z,26.10
2018-09-09T07:30:15.261Z,26.40
2018-09-09T07:32:43.845Z,27.00
2018-09-09T07:35:12.546Z,27.30
2018-09-09T07:37:41.125Z,27.80
2018-09-09T07:40:09.760Z,27.90
2018-09-09T07:42:38.359Z,28.10
2018-09-09T07:45:06.989Z,28.10
2018-09-09T07:47:36.165Z,28.40
2018-09-09T07:50:05.800Z,28.80
2018-09-09T07:52:34.395Z,29.10
2018-09-09T07:55:03.001Z,29.30
2018-09-09T07:57:31.642Z,29.60
2018-09-09T08:00:00.220Z,29.60
2018-09-09T08:02:29.009Z,30.20
2018-09-09T08:04:57.622Z,30.80
2018-09-09T08:07:26.251Z,31.10
2018-09-09T08:09:54.936Z,31.30
2018-09-09T08:12:23.512Z,31.80
2018-09-09T08:14:52.090Z,32.10
2018-09-09T08:17:20.684Z,32.60
2018-09-09T08:19:49.263Z,32.80
2018-09-09T08:22:17.855Z,32.90
2018-09-09T08:24:46.404Z,33.20
2018-09-09T08:27:14.996Z,33.60
2018-09-09T08:29:43.562Z,33.50
2018-09-09T08:32:12.158Z,33.50
2018-09-09T08:34:40.754Z,34.10
2018-09-09T08:37:09.389Z,34.50
2018-09-09T08:39:37.957Z,34.80
2018-09-09T08:42:06.619Z,34.50
2018-09-09T08:44:35.188Z,34.40
2018-09-09T08:47:03.865Z,34.80
2018-09-09T08:49:32.425Z,35.30
2018-09-09T08:52:01.035Z,35.80
2018-09-09T08:54:29.880Z,36.00
2018-09-09T08:56:58.467Z,36.10
2018-09-09T08:59:27.077Z,35.60
2018-09-09T09:01:55.660Z,35.20
2018-09-09T09:04:24.242Z,35.10
2018-09-09T09:06:52.832Z,34.70
2018-09-09T09:09:21.426Z,34.70
2018-09-09T09:11:50.033Z,34.40
2018-09-09T09:14:18.964Z,34.20
2018-09-09T09:16:47.566Z,33.80
2018-09-09T09:19:16.128Z,33.50
2018-09-09T09:21:44.753Z,33.60
2018-09-09T09:24:13.365Z,33.80
2018-09-09T09:26:41.955Z,34.00
2018-09-09T09:29:10.577Z,34.60
2018-09-09T09:31:39.161Z,34.80
2018-09-09T09:34:07.814Z,35.00
2018-09-09T09:36:36.414Z,35.30
2018-09-09T09:39:06.717Z,35.50
2018-09-09T09:41:35.296Z,35.80
2018-09-09T09:44:03.912Z,36.30
2018-09-09T09:46:32.505Z,36.80
2018-09-09T09:49:01.119Z,37.20
2018-09-09T09:51:29.837Z,36.90
2018-09-09T09:53:58.437Z,37.60
2018-09-09T09:56:27.000Z,37.50
2018-09-09T09:58:55.606Z,37.80
2018-09-09T10:01:24.195Z,38.00
2018-09-09T10:03:52.799Z,38.50
2018-09-09T10:06:22.372Z,37.90
2018-09-09T10:08:50.954Z,38.50
2018-09-09T10:11:19.609Z,38.60
2018-09-09T10:13:48.201Z,38.80
2018-09-09T10:16:16.933Z,38.80
2018-09-09T10:18:45.525Z,39.00
2018-09-09T10:21:14.084Z,38.70
2018-09-09T10:23:42.703Z,39.20
2018-09-09T10:26:11.321Z,39.00
2018-09-09T10:28:39.923Z,38.50
2018-09-09T10:31:08.504Z,38.30
2018-09-09T10:33:37.102Z,38.20
2018-09-09T10:36:05.794Z,38.20
2018-09-09T10:38:34.413Z,38.00
2018-09-09T10:41:03.020Z,38.20
2018-09-09T10:43:31.592Z,37.70
2018-09-09T10:46:00.235Z,37.70
2018-09-09T10:48:29.117Z,37.90
2018-09-09T10:50:57.709Z,37.70
2018-09-09T10:53:26.290Z,37.00
2018-09-09T10:55:54.892Z,36.90
2018-09-09T10:58:23.456Z,36.80
2018-09-09T11:00:52.057Z,36.30
2018-09-09T11:03:20.668Z,36.00
2018-09-09T11:05:49.257Z,35.50
2018-09-09T11:08:18.207Z,35.00
2018-09-09T11:10:47.058Z,34.70
2018-09-09T11:13:15.626Z,34.20
2018-09-09T11:15:45.289Z,33.80
2018-09-09T11:18:13.865Z,33.10
2018-09-09T11:20:42.461Z,32.90
2018-09-09T11:23:11.129Z,32.60
2018-09-09T11:25:39.724Z,32.20
2018-09-09T11:28:08.308Z,32.20
2018-09-09T11:30:36.881Z,31.90
2018-09-09T11:33:05.596Z,31.40
2018-09-09T11:35:34.203Z,31.30
2018-09-09T11:38:02.843Z,31.10
2018-09-09T11:40:31.511Z,30.80
2018-09-09T11:43:00.111Z,30.60
2018-09-09T11:45:28.709Z,30.40
2018-09-09T11:47:57.273Z,30.40
2018-09-09T11:50:25.893Z,30.10
2018-09-09T11:52:54.479Z,30.00
2018-09-09T11:55:23.117Z,29.80
2018-09-09T11:57:51.746Z,29.70
2018-09-09T12:00:20.360Z,29.70
2018-09-09T12:02:48.938Z,29.40
2018-09-09T12:05:17.531Z,29.40
2018-09-09T12:07:46.124Z,29.10
2018-09-09T12:10:14.704Z,28.90
2018-09-09T12:12:43.317Z,28.90
2018-09-09T12:15:11.909Z,28.80
2018-09-09T12:17:40.494Z,28.60
2018-09-09T12:20:09.104Z,28.70
2018-09-09T12:22:37.688Z,28.80
2018-09-09T12:25:06.293Z,28.60
2018-09-09T12:27:34.872Z,28.60
2018-09-09T12:30:03.513Z,28.50
2018-09-09T12:32:32.175Z,28.50
2018-09-09T12:35:00.730Z,28.30
2018-09-09T12:37:29.425Z,28.30
2018-09-09T12:39:58.015Z,28.40
2018-09-09T12:42:28.230Z,28.30
2018-09-09T12:45:02.126Z,28.30
2018-09-09T12:47:36.049Z,28.30
2018-09-09T12:50:04.915Z,28.10
2018-09-09T12:52:33.508Z,28.10
2018-09-09T12:55:02.074Z,27.90
2018-09-09T12:57:30.695Z,27.80
2018-09-09T12:59:59.337Z,27.80
2018-09-09T13:02:27.928Z,27.90
2018-09-09T13:04:56.513Z,27.80
2018-09-09T13:07:25.169Z,27.70
2018-09-09T13:09:53.912Z,27.80
2018-09-09T13:12:23.344Z,27.70
2018-09-09T13:14:51.924Z,27.70
2018-09-09T13:17:20.511Z,27.70
2018-09-09T13:19:49.100Z,27.70
2018-09-09T13:22:17.702Z,27.70
2018-09-09T13:24:46.280Z,27.60
2018-09-09T13:27:14.904Z,27.60
2018-09-09T13:29:43.480Z,27.70
2018-09-09T13:32:13.744Z,27.70
2018-09-09T13:34:42.325Z,27.60
2018-09-09T13:37:11.220Z,27.50
2018-09-09T13:39:39.836Z,27.50
2018-09-09T13:42:08.452Z,27.50
2018-09-09T13:44:38.611Z,27.50
2018-09-09T13:47:07.349Z,27.50
2018-09-09T13:49:36.265Z,27.40
2018-09-09T13:52:04.969Z,27.40
2018-09-09T13:54:33.524Z,27.40
2018-09-09T13:57:02.144Z,27.40
2018-09-09T13:59:31.020Z,27.50
2018-09-09T14:01:59.679Z,27.40
2018-09-09T14:04:28.322Z,27.30
2018-09-09T14:06:56.951Z,27.30
2018-09-09T14:09:25.527Z,27.30
2018-09-09T14:11:54.109Z,27.20
2018-09-09T14:14:22.737Z,27.10
2018-09-09T14:16:51.439Z,27.10
2018-09-09T14:19:20.055Z,27.10
2018-09-09T14:21:48.654Z,27.10
2018-09-09T14:24:17.250Z,27.20
2018-09-09T14:26:45.853Z,27.10
2018-09-09T14:29:14.546Z,27.20
2018-09-09T14:31:43.126Z,27.10
2018-09-09T14:34:11.748Z,27.00
2018-09-09T14:36:40.369Z,26.90
2018-09-09T14:39:09.785Z,27.00
2018-09-09T14:41:38.378Z,27.00
2018-09-09T14:44:07.053Z,26.90
2018-09-09T14:46:35.690Z,26.90
2018-09-09T14:49:04.292Z,26.90
2018-09-09T14:51:32.851Z,26.90
2018-09-09T14:54:01.440Z,26.80
2018-09-09T14:56:30.000Z,26.80
2018-09-09T14:58:58.653Z,26.80
2018-09-09T15:01:27.256Z,26.90
2018-09-09T15:03:55.890Z,26.80
2018-09-09T15:06:24.478Z,26.80
2018-09-09T15:08:53.066Z,26.70
2018-09-09T15:11:21.669Z,26.60
2018-09-09T15:13:50.331Z,26.60
2018-09-09T15:16:18.903Z,26.50
2018-09-09T15:18:47.539Z,26.60
2018-09-09T15:21:16.164Z,26.50
2018-09-09T15:23:44.772Z,26.50
2018-09-09T15:26:13.367Z,26.40
2018-09-09T15:28:42.051Z,26.50
2018-09-09T15:31:10.586Z,26.40
2018-09-09T15:33:39.190Z,26.40
2018-09-09T15:36:07.850Z,26.30
2018-09-09T15:38:36.469Z,26.20
2018-09-09T15:41:05.049Z,26.20
2018-09-09T15:43:33.649Z,26.20
2018-09-09T15:46:02.268Z,26.20
2018-09-09T15:48:30.848Z,26.20
2018-09-09T15:50:59.436Z,26.10
2018-09-09T15:53:28.541Z,26.00
2018-09-09T15:55:57.140Z,26.00
2018-09-09T15:58:25.751Z,26.00
2018-09-09T16:00:54.374Z,25.90
2018-09-09T16:03:23.105Z,25.90
2018-09-09T16:05:51.747Z,25.90
2018-09-09T16:08:20.366Z,25.80
2018-09-09T16:10:48.955Z,25.70
2018-09-09T16:13:17.535Z,25.70
2018-09-09T16:15:46.195Z,25.60
2018-09-09T16:18:14.769Z,25.60
2018-09-09T16:20:43.358Z,25.50
2018-09-09T16:23:11.929Z,25.50
2018-09-09T16:25:52.135Z,25.50
2018-09-09T16:28:21.678Z,25.50
2018-09-09T16:30:50.311Z,25.30
2018-09-09T16:33:18.895Z,25.40
2018-09-09T16:35:47.481Z,25.40
2018-09-09T16:38:16.074Z,25.30
2018-09-09T16:40:44.667Z,25.30
2018-09-09T16:43:13.270Z,25.30
2018-09-09T16:45:41.880Z,25.10
2018-09-09T16:48:10.465Z,24.90
2018-09-09T16:50:39.065Z,24.70
2018-09-09T16:53:07.646Z,24.60
2018-09-09T16:55:36.236Z,24.50
2018-09-09T16:58:04.833Z,24.30
2018-09-09T17:00:33.449Z,24.10
2018-09-09T17:03:02.017Z,24.00
2018-09-09T17:05:30.656Z,23.90
2018-09-09T17:07:59.482Z,23.60
2018-09-09T17:10:28.084Z,23.60
2018-09-09T17:12:56.652Z,23.40
2018-09-09T17:15:25.241Z,23.20
2018-09-09T17:17:54.184Z,22.90
2018-09-09T17:20:22.808Z,22.80
2018-09-09T17:22:51.410Z,22.50
2018-09-09T17:25:20.002Z,22.50
2018-09-09T17:27:48.714Z,22.40
2018-09-09T17:30:17.298Z,22.20
2018-09-09T17:32:45.893Z,22.00
2018-09-09T17:35:14.458Z,21.70
2018-09-09T17:37:43.073Z,21.70
2018-09-09T17:40:11.652Z,21.60
2018-09-09T17:42:40.245Z,21.50
2018-09-09T17:45:09.468Z,21.30
2018-09-09T17:47:38.123Z,21.10
2018-09-09T17:50:07.109Z,21.00
2018-09-09T17:52:35.706Z,21.00
2018-09-09T17:55:04.384Z,20.70
2018-09-09T17:57:33.050Z,20.60
2018-09-09T18:00:01.748Z,20.30
2018-09-09T18:02:30.416Z,20.30
2018-09-09T18:04:58.993Z,20.20
2018-09-09T18:07:27.747Z,20.10
2018-09-09T18:09:56.577Z,19.90
2018-09-09T18:12:25.211Z,19.80
2018-09-09T18:14:53.797Z,19.70
2018-09-09T18:17:22.401Z,19.60
2018-09-09T18:19:50.976Z,19.50
2018-09-09T18:22:20.264Z,19.40
2018-09-09T18:24:48.972Z,19.20
2018-09-09T18:27:17.570Z,19.20
2018-09-09T18:29:46.184Z,19.20
2018-09-09T18:32:14.778Z,19.20
2018-09-09T18:34:43.383Z,19.10
2018-09-09T18:37:12.021Z,19.00
2018-09-09T18:39:40.606Z,18.80
2018-09-09T18:42:09.547Z,18.90
2018-09-09T18:44:38.146Z,18.70
2018-09-09T18:47:06.750Z,18.60
2018-09-09T18:49:35.376Z,18.50
2018-09-09T18:52:03.979Z,18.50
2018-09-09T18:54:32.562Z,18.40
2018-09-09T18:57:01.128Z,18.40
2018-09-09T18:59:29.725Z,18.20
2018-09-09T19:01:58.530Z,18.10
2018-09-09T19:04:27.154Z,18.20
2018-09-09T19:06:55.727Z,18.00
2018-09-09T19:09:24.334Z,17.90
2018-09-09T19:11:52.987Z,17.70
2018-09-09T19:14:24.933Z,17.70
2018-09-09T19:16:56.042Z,17.70
2018-09-09T19:19:24.632Z,17.70
2018-09-09T19:21:53.235Z,17.60
2018-09-09T19:24:22.058Z,17.50
2018-09-09T19:26:50.655Z,17.30
2018-09-09T19:29:19.254Z,17.30
2018-09-09T19:31:47.852Z,17.10
2018-09-09T19:34:16.466Z,17.00
2018-09-09T19:36:50.826Z,16.90
2018-09-09T19:39:19.425Z,16.70
2018-09-09T19:41:48.034Z,16.70
2018-09-09T19:44:16.735Z,16.80
2018-09-09T19:46:45.309Z,16.70
2018-09-09T19:49:13.922Z,16.60
2018-09-09T19:51:42.805Z,16.70
2018-09-09T19:54:11.411Z,16.70
2018-09-09T19:56:40.201Z,16.60
2018-09-09T19:59:08.890Z,16.60
2018-09-09T20:01:37.477Z,16.50
2018-09-09T20:04:06.100Z,16.40
2018-09-09T20:06:34.684Z,16.30
2018-09-09T20:09:03.426Z,16.20
2018-09-09T20:11:32.979Z,16.10
2018-09-09T20:14:01.569Z,16.20
2018-09-09T20:16:30.153Z,16.10
2018-09-09T20:18:58.762Z,16.10
2018-09-09T20:21:27.327Z,16.00
2018-09-09T20:23:55.925Z,15.90
2018-09-09T20:26:24.484Z,15.90
2018-09-09T20:28:53.058Z,15.90
2018-09-09T20:31:21.648Z,15.80
2018-09-09T20:33:50.211Z,15.70
2018-09-09T20:36:18.881Z,15.70
2018-09-09T20:38:47.524Z,15.70
2018-09-09T20:41:16.060Z,15.60
2018-09-09T20:43:44.637Z,15.50
2018-09-09T20:46:13.281Z,15.50
2018-09-09T20:48:41.846Z,15.40
2018-09-09T20:51:10.444Z,15.30
2018-09-09T20:53:39.016Z,15.30
2018-09-09T20:56:08.076Z,15.20
2018-09-09T20:58:36.650Z,15.20
2018-09-09T21:01:05.850Z,15.00
2018-09-09T21:03:34.458Z,15.10
2018-09-09T21:06:03.085Z,15.10
2018-09-09T21:08:31.651Z,15.10
2018-09-09T21:11:00.256Z,15.00
2018-09-09T21:13:28.818Z,15.00
2018-09-09T21:15:57.410Z,15.10
2018-09-09T21:18:26.025Z,15.00
2018-09-09T21:20:54.609Z,15.00
2018-09-09T21:23:23.249Z,15.00
2018-09-09T21:25:52.089Z,14.80
2018-09-09T21:28:20.912Z,14.80
2018-09-09T21:30:49.500Z,14.80
2018-09-09T21:33:18.125Z,14.70
2018-09-09T21:35:46.729Z,14.70
2018-09-09T21:38:15.321Z,14.70
2018-09-09T21:40:43.912Z,14.70
2018-09-09T21:43:12.850Z,14.60
2018-09-09T21:45:41.439Z,14.60
2018-09-09T21:48:10.004Z,14.60
2018-09-09T21:50:38.618Z,14.50
2018-09-09T21:53:07.254Z,14.50
2018-09-09T21:55:35.819Z,14.50
2018-09-09T21:58:04.433Z,14.50
2018-09-09T22:00:35.708Z,14.50
2018-09-09T22:03:04.299Z,14.50
2018-09-09T22:05:32.901Z,14.40
2018-09-09T22:08:01.517Z,14.40
2018-09-09T22:10:30.645Z,14.40
2018-09-09T22:12:59.226Z,14.30
2018-09-09T22:15:27.796Z,14.30
2018-09-09T22:17:56.450Z,14.30
2018-09-09T22:20:25.074Z,14.30
2018-09-09T22:22:53.690Z,14.10
2018-09-09T22:25:22.260Z,14.10
2018-09-09T22:27:50.840Z,14.10
2018-09-09T22:30:19.412Z,14.20
2018-09-09T22:32:48.042Z,14.10
2018-09-09T22:35:16.610Z,14.10
2018-09-09T22:37:45.260Z,14.10
2018-09-09T22:40:13.858Z,14.10
2018-09-09T22:42:42.444Z,14.00
2018-09-09T22:45:11.011Z,13.90
2018-09-09T22:47:39.602Z,13.90
2018-09-09T22:50:08.208Z,13.80
2018-09-09T22:52:36.841Z,13.80
2018-09-09T22:55:05.481Z,13.80
2018-09-09T22:57:34.369Z,13.80
2018-09-09T23:00:02.974Z,13.80
2018-09-09T23:02:31.624Z,13.80
2018-09-09T23:05:00.210Z,13.80
2018-09-09T23:07:28.798Z,13.70
2018-09-09T23:09:57.376Z,13.70
2018-09-09T23:12:25.972Z,13.60
2018-09-09T23:14:54.612Z,13.60
2018-09-09T23:17:23.161Z,13.60
2018-09-09T23:19:51.755Z,13.50
2018-09-09T23:22:20.470Z,13.50
2018-09-09T23:24:49.066Z,13.50
2018-09-09T23:27:17.637Z,13.50
2018-09-09T23:29:46.241Z,13.40
2018-09-09T23:32:14.816Z,13.50
2018-09-09T23:34:43.401Z,13.50
2018-09-09T23:37:12.014Z,13.50
2018-09-09T23:39:40.601Z,13.50
2018-09-09T23:42:09.171Z,13.40
2018-09-09T23:44:37.762Z,13.40
2018-09-09T23:47:06.528Z,13.30
2018-09-09T23:49:35.138Z,13.30
2018-09-09T23:52:03.884Z,13.20
2018-09-09T23:54:32.486Z,13.10
2018-09-09T23:57:01.042Z,13.20
2018-09-09T23:59:29.686Z,13.20
